createdAt,value
2023-05-05T00:00:00.651Z,12.17
2023-05-05T00:02:32.521Z,12.14
2023-05-05T00:05:04.229Z,12.17
2023-05-05T00:07:37.321Z,12.02
2023-05-05T00:10:10.543Z,11.98
2023-05-05T00:12:42.191Z,11.96
2023-05-05T00:15:14.394Z,11.91
2023-05-05T00:17:46.345Z,11.80
2023-05-05T00:20:18.207Z,11.78
2023-05-05T00:22:51.366Z,11.77
2023-05-05T00:25:23.279Z,11.72
2023-05-05T00:27:55.282Z,11.76
2023-05-05T00:30:27.189Z,11.72
2023-05-05T00:32:59.268Z,11.66
2023-05-05T00:35:31.065Z,11.53
2023-05-05T00:38:04.136Z,11.37
2023-05-05T00:40:35.999Z,11.42
2023-05-05T00:43:08.195Z,11.52
2023-05-05T00:45:42.763Z,11.48
2023-05-05T00:48:14.952Z,11.42
2023-05-05T00:50:48.202Z,11.40
2023-05-05T00:53:21.283Z,11.41
2023-05-05T00:55:53.556Z,11.39
2023-05-05T00:58:25.610Z,11.28
2023-05-05T01:00:57.402Z,11.27
2023-05-05T01:03:29.334Z,11.13
2023-05-05T01:06:11.113Z,11.20
2023-05-05T01:08:56.564Z,11.18
2023-05-05T01:11:40.725Z,11.17
2023-05-05T01:14:23.993Z,11.24
2023-05-05T01:17:07.976Z,11.11
2023-05-05T01:20:15.579Z,11.06
2023-05-05T01:22:54.908Z,11.08
2023-05-05T01:25:50.388Z,11.02
2023-05-05T01:28:38.223Z,11.04
2023-05-05T01:31:28.037Z,10.98
2023-05-05T01:34:08.426Z,11.03
2023-05-05T01:36:45.532Z,10.93
2023-05-05T01:39:21.862Z,10.86
2023-05-05T01:42:03.600Z,10.88
2023-05-05T01:44:37.343Z,10.78
2023-05-05T01:47:10.978Z,10.78
2023-05-05T01:49:47.205Z,10.65
2023-05-05T01:52:21.551Z,10.77
2023-05-05T01:54:58.464Z,10.74
2023-05-05T01:57:34.121Z,10.72
2023-05-05T02:00:09.813Z,10.71
2023-05-05T02:02:46.326Z,10.62
2023-05-05T02:05:23.539Z,10.65
2023-05-05T02:07:59.963Z,10.69
2023-05-05T02:10:33.451Z,10.52
2023-05-05T02:13:06.768Z,10.57
2023-05-05T02:15:41.412Z,10.64
2023-05-05T02:18:15.157Z,10.66
2023-05-05T02:20:49.605Z,10.60
2023-05-05T02:23:22.080Z,10.64
2023-05-05T02:26:00.801Z,10.61
2023-05-05T02:28:48.136Z,10.60
2023-05-05T02:31:24.567Z,10.43
2023-05-05T02:34:01.453Z,10.41
2023-05-05T02:36:38.542Z,10.40
2023-05-05T02:39:20.766Z,10.46
2023-05-05T02:41:56.192Z,10.45
2023-05-05T02:44:30.060Z,10.47
2023-05-05T02:47:03.810Z,10.49
2023-05-05T02:49:35.945Z,10.44
2023-05-05T02:52:09.163Z,10.37
2023-05-05T02:54:41.215Z,10.34
2023-05-05T02:57:20.897Z,10.26
2023-05-05T03:00:01.968Z,10.19
2023-05-05T03:02:44.436Z,10.20
2023-05-05T03:05:23.258Z,10.16
2023-05-05T03:08:03.163Z,10.12
2023-05-05T03:11:00.021Z,10.20
2023-05-05T03:13:35.484Z,10.19
2023-05-05T03:16:10.026Z,10.14
2023-05-05T03:18:45.362Z,10.20
2023-05-05T03:21:17.353Z,10.21
2023-05-05T03:23:51.140Z,10.20
2023-05-05T03:26:22.822Z,10.12
2023-05-05T03:28:54.728Z,10.13
2023-05-05T03:31:28.283Z,10.11
2023-05-05T03:33:59.941Z,10.09
2023-05-05T03:36:32.946Z,9.98
2023-05-05T03:39:06.232Z,9.97
2023-05-05T03:41:38.077Z,10.00
2023-05-05T03:44:09.869Z,9.92
2023-05-05T03:46:41.684Z,9.91
2023-05-05T03:49:13.591Z,9.97
2023-05-05T03:51:45.558Z,9.91
2023-05-05T03:54:19.241Z,9.86
2023-05-05T03:56:51.074Z,9.84
2023-05-05T03:59:23.020Z,9.91
2023-05-05T04:01:54.859Z,9.85
2023-05-05T04:04:26.860Z,9.79
2023-05-05T04:06:58.560Z,9.89
2023-05-05T04:09:31.788Z,9.80
2023-05-05T04:12:03.578Z,9.85
2023-05-05T04:14:35.813Z,9.80
2023-05-05T04:17:07.524Z,9.85
2023-05-05T04:19:39.337Z,9.82
2023-05-05T04:22:11.372Z,9.76
2023-05-05T04:24:44.298Z,9.69
2023-05-05T04:27:16.379Z,9.63
2023-05-05T04:29:48.150Z,9.57
2023-05-05T04:32:20.014Z,9.59
2023-05-05T04:34:51.816Z,9.61
2023-05-05T04:37:23.580Z,9.63
2023-05-05T04:39:56.982Z,9.65
2023-05-05T04:42:28.847Z,9.62
2023-05-05T04:45:00.628Z,9.62
2023-05-05T04:47:32.555Z,9.65
2023-05-05T04:50:04.415Z,9.67
2023-05-05T04:52:36.247Z,9.64
2023-05-05T04:55:11.608Z,9.62
2023-05-05T04:57:43.373Z,9.61
2023-05-05T05:00:17.664Z,9.62
2023-05-05T05:02:49.621Z,9.55
2023-05-05T05:05:21.546Z,9.41
2023-05-05T05:07:53.253Z,9.45
2023-05-05T05:10:26.424Z,9.45
2023-05-05T05:12:58.371Z,9.44
2023-05-05T05:15:31.122Z,9.52
2023-05-05T05:18:03.013Z,9.56
2023-05-05T05:20:35.389Z,9.58
2023-05-05T05:23:07.189Z,9.57
2023-05-05T05:25:40.370Z,9.51
2023-05-05T05:28:12.284Z,9.60
2023-05-05T05:30:44.067Z,9.62
2023-05-05T05:33:15.914Z,9.71
2023-05-05T05:35:47.820Z,9.78
2023-05-05T05:38:19.712Z,9.86
2023-05-05T05:40:54.629Z,9.92
2023-05-05T05:43:26.183Z,9.96
2023-05-05T05:45:58.064Z,9.95
2023-05-05T05:48:29.965Z,9.91
2023-05-05T05:51:02.440Z,9.91
2023-05-05T05:53:35.929Z,9.98
2023-05-05T05:56:11.051Z,10.02
2023-05-05T05:58:42.914Z,10.07
2023-05-05T06:01:14.807Z,10.10
2023-05-05T06:03:46.735Z,10.13
2023-05-05T06:06:18.407Z,10.16
2023-05-05T06:08:51.813Z,10.18
2023-05-05T06:11:25.078Z,10.21
2023-05-05T06:13:56.884Z,10.26
2023-05-05T06:16:30.333Z,10.32
2023-05-05T06:19:02.196Z,10.40
2023-05-05T06:21:34.126Z,10.48
2023-05-05T06:24:06.017Z,10.53
2023-05-05T06:26:39.207Z,10.60
2023-05-05T06:29:12.348Z,10.65
2023-05-05T06:31:46.230Z,10.68
2023-05-05T06:34:18.199Z,10.79
2023-05-05T06:36:50.158Z,10.90
2023-05-05T06:39:21.762Z,11.00
2023-05-05T06:41:54.835Z,11.06
2023-05-05T06:44:28.223Z,11.15
2023-05-05T06:47:00.681Z,11.25
2023-05-05T06:49:32.645Z,11.32
2023-05-05T06:52:04.619Z,11.35
2023-05-05T06:54:36.424Z,11.41
2023-05-05T06:57:09.411Z,11.42
2023-05-05T06:59:42.637Z,11.45
2023-05-05T07:02:14.526Z,11.47
2023-05-05T07:04:46.545Z,11.50
2023-05-05T07:07:18.395Z,11.56
2023-05-05T07:09:50.219Z,11.57
2023-05-05T07:12:23.288Z,11.62
2023-05-05T07:14:56.807Z,11.67
2023-05-05T07:17:28.438Z,11.74
2023-05-05T07:20:00.254Z,11.76
2023-05-05T07:22:32.187Z,11.80
2023-05-05T07:25:05.529Z,11.84
2023-05-05T07:27:39.972Z,11.89
2023-05-05T07:30:18.501Z,11.93
2023-05-05T07:32:51.084Z,11.98
2023-05-05T07:35:23.081Z,12.00
2023-05-05T07:37:56.495Z,12.07
2023-05-05T07:40:28.244Z,12.11
2023-05-05T07:43:01.517Z,12.19
2023-05-05T07:45:33.963Z,12.29
2023-05-05T07:48:05.958Z,12.43
2023-05-05T07:50:39.617Z,12.58
2023-05-05T07:53:14.958Z,12.66
2023-05-05T07:55:46.907Z,12.68
2023-05-05T07:58:19.939Z,12.74
2023-05-05T08:00:53.213Z,12.77
2023-05-05T08:03:25.354Z,12.86
2023-05-05T08:06:06.727Z,12.91
2023-05-05T08:08:39.589Z,12.95
2023-05-05T08:11:11.501Z,13.05
2023-05-05T08:13:44.456Z,13.11
2023-05-05T08:16:16.766Z,13.18
2023-05-05T08:18:50.215Z,13.19
2023-05-05T08:21:22.384Z,13.28
2023-05-05T08:23:53.938Z,13.33
2023-05-05T08:26:25.920Z,13.42
2023-05-05T08:29:00.787Z,13.47
2023-05-05T08:31:37.794Z,13.54
2023-05-05T08:34:09.928Z,13.63
2023-05-05T08:36:41.741Z,13.73
2023-05-05T08:39:13.572Z,13.77
2023-05-05T08:41:45.863Z,13.88
2023-05-05T08:44:18.942Z,14.00
2023-05-05T08:46:52.286Z,14.15
2023-05-05T08:49:25.370Z,14.26
2023-05-05T08:52:00.362Z,14.40
2023-05-05T08:54:35.883Z,14.53
2023-05-05T08:57:11.882Z,14.79
2023-05-05T08:59:46.008Z,14.93
2023-05-05T09:02:19.347Z,15.00
2023-05-05T09:04:51.527Z,15.02
2023-05-05T09:07:25.618Z,15.05
2023-05-05T09:09:59.697Z,15.16
2023-05-05T09:12:35.544Z,15.19
2023-05-05T09:15:11.614Z,15.22
2023-05-05T09:17:45.539Z,15.32
2023-05-05T09:20:18.503Z,15.36
2023-05-05T09:22:53.176Z,15.42
2023-05-05T09:25:25.090Z,15.54
2023-05-05T09:27:56.895Z,15.68
2023-05-05T09:30:31.383Z,15.86
2023-05-05T09:33:05.547Z,15.99
2023-05-05T09:35:54.427Z,16.11
2023-05-05T09:38:27.997Z,16.20
2023-05-05T09:40:59.814Z,16.40
2023-05-05T09:43:31.663Z,16.54
2023-05-05T09:46:12.129Z,16.63
2023-05-05T09:48:44.001Z,16.68
2023-05-05T09:51:16.128Z,16.70
2023-05-05T09:53:47.863Z,16.83
2023-05-05T09:56:19.867Z,16.88
2023-05-05T09:58:51.441Z,16.93
2023-05-05T10:01:28.449Z,16.98
2023-05-05T10:04:00.417Z,16.98
2023-05-05T10:06:47.427Z,17.01
2023-05-05T10:09:20.979Z,17.04
2023-05-05T10:11:57.284Z,17.10
2023-05-05T10:14:32.735Z,17.15
2023-05-05T10:17:08.074Z,17.29
2023-05-05T10:19:42.878Z,17.41
2023-05-05T10:22:15.067Z,17.54
2023-05-05T10:24:52.363Z,17.62
2023-05-05T10:27:29.245Z,17.66
2023-05-05T10:30:12.997Z,17.71
2023-05-05T10:33:07.878Z,17.76
2023-05-05T10:35:51.593Z,17.88
2023-05-05T10:38:25.535Z,17.95
2023-05-05T10:41:01.794Z,18.03
2023-05-05T10:43:34.740Z,18.04
2023-05-05T10:46:07.358Z,18.07
2023-05-05T10:48:48.267Z,18.09
2023-05-05T10:51:39.340Z,18.11
2023-05-05T10:54:21.938Z,18.12
2023-05-05T10:56:55.142Z,18.20
2023-05-05T10:59:48.112Z,18.22
2023-05-05T11:02:28.812Z,18.28
2023-05-05T11:05:21.291Z,18.32
2023-05-05T11:07:54.640Z,18.45
2023-05-05T11:10:26.510Z,18.53
2023-05-05T11:13:21.946Z,18.55
2023-05-05T11:15:55.384Z,18.63
2023-05-05T11:18:38.211Z,18.68
2023-05-05T11:21:18.349Z,18.77
2023-05-05T11:24:28.539Z,18.89
2023-05-05T11:27:01.307Z,19.00
2023-05-05T11:30:09.574Z,19.20
2023-05-05T11:32:41.481Z,19.32
2023-05-05T11:35:14.240Z,19.43
2023-05-05T11:38:01.900Z,19.46
2023-05-05T11:40:38.484Z,19.43
2023-05-05T11:43:12.409Z,19.40
2023-05-05T11:45:44.221Z,19.28
2023-05-05T11:48:30.770Z,19.27
2023-05-05T11:51:05.378Z,19.29
2023-05-05T11:53:42.588Z,19.39
2023-05-05T11:56:19.256Z,19.43
2023-05-05T11:59:05.732Z,19.33
2023-05-05T12:01:40.271Z,19.38
2023-05-05T12:04:15.254Z,19.28
2023-05-05T12:06:48.961Z,19.32
2023-05-05T12:09:24.304Z,19.28
2023-05-05T12:12:00.483Z,19.27
2023-05-05T12:14:34.409Z,19.33
2023-05-05T12:17:09.425Z,19.34
2023-05-05T12:19:48.147Z,19.44
2023-05-05T12:22:24.659Z,19.44
2023-05-05T12:25:03.091Z,19.53
2023-05-05T12:27:36.263Z,19.62
2023-05-05T12:30:19.240Z,19.83
2023-05-05T12:32:51.077Z,19.99
2023-05-05T12:35:22.823Z,19.85
2023-05-05T12:37:54.748Z,20.08
2023-05-05T12:40:49.606Z,20.18
2023-05-05T12:43:35.517Z,20.24
2023-05-05T12:46:07.102Z,20.34
2023-05-05T12:48:44.453Z,20.36
2023-05-05T12:51:23.034Z,20.51
2023-05-05T12:54:07.443Z,20.63
2023-05-05T12:56:44.055Z,20.58
2023-05-05T12:59:32.813Z,20.63
2023-05-05T13:02:05.101Z,20.71
2023-05-05T13:04:48.468Z,20.80
2023-05-05T13:07:21.695Z,20.73
2023-05-05T13:10:10.488Z,20.94
2023-05-05T13:12:43.452Z,21.03
2023-05-05T13:15:17.729Z,21.11
2023-05-05T13:17:49.614Z,21.11
2023-05-05T13:20:21.384Z,20.96
2023-05-05T13:22:54.742Z,21.06
2023-05-05T13:25:27.990Z,21.15
2023-05-05T13:28:00.957Z,21.33
2023-05-05T13:30:34.246Z,21.31
2023-05-05T13:33:06.268Z,21.33
2023-05-05T13:35:39.585Z,21.35
2023-05-05T13:38:11.362Z,21.46
2023-05-05T13:40:43.183Z,21.44
2023-05-05T13:43:16.174Z,21.54
2023-05-05T13:45:48.107Z,21.59
2023-05-05T13:48:21.323Z,21.45
2023-05-05T13:50:54.606Z,21.54
2023-05-05T13:53:27.909Z,21.51
2023-05-05T13:56:00.146Z,21.59
2023-05-05T13:58:34.195Z,21.62
2023-05-05T14:01:09.520Z,21.45
2023-05-05T14:03:41.205Z,21.43
2023-05-05T14:06:13.565Z,21.42
2023-05-05T14:08:46.084Z,21.44
2023-05-05T14:11:18.217Z,21.46
2023-05-05T14:13:51.922Z,21.49
2023-05-05T14:16:23.600Z,21.44
2023-05-05T14:18:57.628Z,21.33
2023-05-05T14:21:29.308Z,21.21
2023-05-05T14:24:01.160Z,21.14
2023-05-05T14:26:33.041Z,21.08
2023-05-05T14:29:06.198Z,21.00
2023-05-05T14:31:39.767Z,21.08
2023-05-05T14:34:11.714Z,20.98
2023-05-05T14:36:43.363Z,21.03
2023-05-05T14:39:16.654Z,21.02
2023-05-05T14:41:48.572Z,21.01
2023-05-05T14:44:21.811Z,20.93
2023-05-05T14:46:53.587Z,20.95
2023-05-05T14:49:25.540Z,20.92
2023-05-05T14:51:58.934Z,20.87
2023-05-05T14:54:30.778Z,20.79
2023-05-05T14:57:02.860Z,20.65
2023-05-05T14:59:36.121Z,20.68
2023-05-05T15:02:08.100Z,20.59
2023-05-05T15:04:39.924Z,20.53
2023-05-05T15:07:11.893Z,20.52
2023-05-05T15:09:43.746Z,20.50
2023-05-05T15:12:15.711Z,20.48
2023-05-05T15:14:48.624Z,20.48
2023-05-05T15:17:20.528Z,20.38
2023-05-05T15:19:52.217Z,20.40
2023-05-05T15:22:24.035Z,20.31
2023-05-05T15:24:55.839Z,20.36
2023-05-05T15:27:27.945Z,20.35
2023-05-05T15:30:01.176Z,20.24
2023-05-05T15:32:35.062Z,20.22
2023-05-05T15:35:06.962Z,20.31
2023-05-05T15:37:39.098Z,20.29
2023-05-05T15:40:13.458Z,20.29
2023-05-05T15:42:45.770Z,20.30
2023-05-05T15:45:18.868Z,20.34
2023-05-05T15:47:51.010Z,20.29
2023-05-05T15:50:23.322Z,20.28
2023-05-05T15:52:56.778Z,20.25
2023-05-05T15:55:31.257Z,20.27
2023-05-05T15:58:03.051Z,20.24
2023-05-05T16:00:35.961Z,20.16
2023-05-05T16:03:07.977Z,20.16
2023-05-05T16:05:41.699Z,20.11
2023-05-05T16:08:15.031Z,20.01
2023-05-05T16:10:46.850Z,19.96
2023-05-05T16:13:18.733Z,19.68
2023-05-05T16:15:51.796Z,19.42
2023-05-05T16:18:23.714Z,19.34
2023-05-05T16:20:55.583Z,19.10
2023-05-05T16:23:27.402Z,18.94
2023-05-05T16:26:00.979Z,18.97
2023-05-05T16:28:34.179Z,18.88
2023-05-05T16:31:09.423Z,18.95
2023-05-05T16:33:43.744Z,18.88
2023-05-05T16:36:17.810Z,18.87
2023-05-05T16:38:50.851Z,18.66
2023-05-05T16:41:23.374Z,18.65
2023-05-05T16:43:55.424Z,18.43
2023-05-05T16:46:28.577Z,18.27
2023-05-05T16:49:00.492Z,18.12
2023-05-05T16:51:32.409Z,18.00
2023-05-05T16:54:04.331Z,18.05
2023-05-05T16:56:36.728Z,17.68
2023-05-05T16:59:08.596Z,17.72
2023-05-05T17:01:43.330Z,17.52
2023-05-05T17:04:15.120Z,17.52
2023-05-05T17:06:48.305Z,17.53
2023-05-05T17:09:24.688Z,17.49
2023-05-05T17:11:56.571Z,17.58
2023-05-05T17:14:28.456Z,17.52
2023-05-05T17:17:01.504Z,17.39
2023-05-05T17:19:33.384Z,17.39
2023-05-05T17:22:06.678Z,17.45
2023-05-05T17:24:39.923Z,17.43
2023-05-05T17:27:12.713Z,17.41
2023-05-05T17:29:44.634Z,17.46
2023-05-05T17:32:18.293Z,17.47
2023-05-05T17:34:50.142Z,17.36
2023-05-05T17:37:22.076Z,17.33
2023-05-05T17:39:53.879Z,17.25
2023-05-05T17:42:27.019Z,17.17
2023-05-05T17:44:58.603Z,17.12
2023-05-05T17:47:31.903Z,17.22
2023-05-05T17:50:03.609Z,17.19
2023-05-05T17:52:35.472Z,17.25
2023-05-05T17:55:07.749Z,17.23
2023-05-05T17:57:39.915Z,17.10
2023-05-05T18:00:13.710Z,17.04
2023-05-05T18:02:46.749Z,16.94
2023-05-05T18:05:19.010Z,16.93
2023-05-05T18:07:50.877Z,16.99
2023-05-05T18:10:24.042Z,17.01
2023-05-05T18:12:55.852Z,16.61
2023-05-05T18:15:29.727Z,16.61
2023-05-05T18:18:03.458Z,16.64
2023-05-05T18:20:36.868Z,16.64
2023-05-05T18:23:08.764Z,16.57
2023-05-05T18:25:41.458Z,16.55
2023-05-05T18:28:13.312Z,16.54
2023-05-05T18:30:45.280Z,16.57
2023-05-05T18:33:18.303Z,16.56
2023-05-05T18:35:50.144Z,16.56
2023-05-05T18:38:22.221Z,16.53
2023-05-05T18:40:54.008Z,16.52
2023-05-05T18:43:25.838Z,16.38
2023-05-05T18:45:57.833Z,16.32
2023-05-05T18:48:31.040Z,16.35
2023-05-05T18:51:06.974Z,16.18
2023-05-05T18:53:39.266Z,16.06
2023-05-05T18:56:11.022Z,16.16
2023-05-05T18:58:42.896Z,16.06
2023-05-05T19:01:14.816Z,16.04
2023-05-05T19:03:51.419Z,16.04
2023-05-05T19:06:23.539Z,16.01
2023-05-05T19:08:55.413Z,15.86
2023-05-05T19:11:27.298Z,15.85
2023-05-05T19:13:59.230Z,15.78
2023-05-05T19:16:31.178Z,15.78
2023-05-05T19:19:04.372Z,15.62
2023-05-05T19:21:36.323Z,15.62
2023-05-05T19:24:09.609Z,15.59
2023-05-05T19:26:41.398Z,15.59
2023-05-05T19:29:13.314Z,15.51
2023-05-05T19:31:46.718Z,15.59
2023-05-05T19:34:19.702Z,15.57
2023-05-05T19:36:51.619Z,15.58
2023-05-05T19:39:23.436Z,15.56
2023-05-05T19:41:55.329Z,15.52
2023-05-05T19:44:27.067Z,15.41
2023-05-05T19:46:59.011Z,15.45
2023-05-05T19:49:32.008Z,15.41
2023-05-05T19:52:03.928Z,15.42
2023-05-05T19:54:36.079Z,15.39
2023-05-05T19:57:07.701Z,15.39
2023-05-05T19:59:39.596Z,15.35
2023-05-05T20:02:12.161Z,15.32
2023-05-05T20:04:45.956Z,15.26
2023-05-05T20:07:17.890Z,15.31
2023-05-05T20:09:49.874Z,15.30
2023-05-05T20:12:23.061Z,15.27
2023-05-05T20:14:54.952Z,15.19
2023-05-05T20:17:26.846Z,15.26
2023-05-05T20:20:00.062Z,15.29
2023-05-05T20:22:31.978Z,15.30
2023-05-05T20:25:03.984Z,15.29
2023-05-05T20:27:36.143Z,15.28
2023-05-05T20:30:10.764Z,15.35
2023-05-05T20:32:43.462Z,15.31
2023-05-05T20:35:16.751Z,15.17
2023-05-05T20:37:48.745Z,15.13
2023-05-05T20:40:20.732Z,15.20
2023-05-05T20:42:52.362Z,15.24
2023-05-05T20:45:24.974Z,15.25
2023-05-05T20:47:56.654Z,15.13
2023-05-05T20:50:29.648Z,14.96
2023-05-05T20:53:01.563Z,14.97
2023-05-05T20:55:33.946Z,14.97
2023-05-05T20:58:06.731Z,14.97
2023-05-05T21:00:38.723Z,14.90
2023-05-05T21:03:10.662Z,14.85
2023-05-05T21:05:44.649Z,14.91
2023-05-05T21:08:16.427Z,14.84
2023-05-05T21:10:48.216Z,14.81
2023-05-05T21:13:20.110Z,14.77
2023-05-05T21:15:51.983Z,14.76
2023-05-05T21:18:25.709Z,14.70
2023-05-05T21:20:58.970Z,14.62
2023-05-05T21:23:31.296Z,14.65
2023-05-05T21:26:05.906Z,14.71
2023-05-05T21:28:37.564Z,14.68
2023-05-05T21:31:21.684Z,14.66
2023-05-05T21:33:54.214Z,14.57
2023-05-05T21:36:27.433Z,14.51
2023-05-05T21:39:00.483Z,14.55
2023-05-05T21:41:32.329Z,14.52
2023-05-05T21:44:04.255Z,14.45
2023-05-05T21:46:36.220Z,14.41
2023-05-05T21:49:17.377Z,14.44
2023-05-05T21:51:51.169Z,14.44
2023-05-05T21:54:23.162Z,14.38
2023-05-05T21:56:55.016Z,14.35
2023-05-05T21:59:27.132Z,14.35
2023-05-05T22:01:59.104Z,14.34
2023-05-05T22:04:30.890Z,14.34
2023-05-05T22:07:03.819Z,14.35
2023-05-05T22:09:35.697Z,14.32
2023-05-05T22:12:07.553Z,14.32
2023-05-05T22:14:39.513Z,14.29
2023-05-05T22:17:11.565Z,14.25
2023-05-05T22:19:43.180Z,14.30
2023-05-05T22:22:17.367Z,14.35
2023-05-05T22:24:49.371Z,14.27
2023-05-05T22:27:21.203Z,14.20
2023-05-05T22:29:53.028Z,14.23
2023-05-05T22:32:24.971Z,14.20
2023-05-05T22:34:56.845Z,14.18
2023-05-05T22:37:29.748Z,14.13
2023-05-05T22:40:01.643Z,13.98
2023-05-05T22:42:45.289Z,14.05
2023-05-05T22:45:19.345Z,14.00
2023-05-05T22:47:51.543Z,13.99
2023-05-05T22:50:23.599Z,13.98
2023-05-05T22:52:57.139Z,13.95
2023-05-05T22:55:28.797Z,13.97
2023-05-05T22:58:00.637Z,13.97
2023-05-05T23:00:32.366Z,13.99
2023-05-05T23:03:04.295Z,14.01
2023-05-05T23:05:36.189Z,13.91
2023-05-05T23:08:09.837Z,13.89
2023-05-05T23:10:41.691Z,13.81
2023-05-05T23:13:13.607Z,13.77
2023-05-05T23:15:45.550Z,13.75
2023-05-05T23:18:17.373Z,13.66
2023-05-05T23:20:49.362Z,13.68
2023-05-05T23:23:22.544Z,13.66
2023-05-05T23:25:54.422Z,13.56
2023-05-05T23:28:26.263Z,13.54
2023-05-05T23:30:58.254Z,13.63
2023-05-05T23:33:30.120Z,13.52
2023-05-05T23:36:01.919Z,13.45
2023-05-05T23:38:35.115Z,13.45
2023-05-05T23:41:07.036Z,13.55
2023-05-05T23:43:38.897Z,13.52
2023-05-05T23:46:10.789Z,13.46
2023-05-05T23:48:42.658Z,13.39
2023-05-05T23:51:14.463Z,13.32
2023-05-05T23:53:47.406Z,13.37
2023-05-05T23:56:19.299Z,13.30
2023-05-05T23:58:52.388Z,13.27
